Time;durP1;ratioP1;P1;durP2;ratioP2;P2;SDS_P1;SDS_P2;PMS_P1;PMS_P2;Temp;Humidity;BMP_temperature;BMP_pressure;BME280_temperature;BME280_humidity;BME280_pressure;Samples;Min_cycle;Max_cycle;Signal;HPM_P1;HPM_P2
2024/04/21 00:01:45;;;;;;;3.90;3.60;;;5.70;59.50;;;;;;5320070;26;20290;-65
2024/04/21 00:04:13;;;;;;;4.37;3.90;;;5.70;59.60;;;;;;5292685;26;20605;-65
2024/04/21 00:06:39;;;;;;;3.83;3.50;;;5.70;59.60;;;;;;5330082;26;20550;-65
2024/04/21 00:09:07;;;;;;;4.13;3.83;;;5.70;59.50;;;;;;5329993;26;20284;-65
2024/04/21 00:11:33;;;;;;;4.17;3.90;;;5.60;59.30;;;;;;5325296;26;20378;-65
2024/04/21 00:14:01;;;;;;;4.03;3.63;;;5.60;59.20;;;;;;5320518;26;20243;-65
2024/04/21 00:16:26;;;;;;;4.00;3.70;;;5.60;59.50;;;;;;5336061;26;20234;-65
2024/04/21 00:18:55;;;;;;;4.23;3.83;;;5.50;59.40;;;;;;5286481;27;20793;-65
2024/04/21 00:21:20;;;;;;;4.83;4.20;;;5.50;59.40;;;;;;5315271;26;20376;-66
2024/04/21 00:23:48;;;;;;;4.17;3.77;;;5.50;59.40;;;;;;5335376;26;20241;-65
2024/04/21 00:26:14;;;;;;;5.17;4.10;;;5.40;59.90;;;;;;5323519;26;20378;-65
2024/04/21 00:28:45;;;;;;;3.87;3.57;;;5.30;60.20;;;;;;5327944;26;20246;-65
2024/04/21 00:31:11;;;;;;;4.70;4.30;;;5.20;61.00;;;;;;5331261;26;20256;-65
2024/04/21 00:33:39;;;;;;;4.30;4.00;;;5.30;60.30;;;;;;5295144;26;20287;-65
2024/04/21 00:36:05;;;;;;;4.07;3.77;;;5.20;60.50;;;;;;5323825;26;20255;-65
2024/04/21 00:38:33;;;;;;;4.27;3.97;;;5.20;61.10;;;;;;5330808;26;20237;-65
2024/04/21 00:40:59;;;;;;;4.40;4.10;;;5.10;61.40;;;;;;5328493;26;20344;-65
2024/04/21 00:43:27;;;;;;;4.97;4.47;;;5.20;61.30;;;;;;5328337;26;20254;-65
2024/04/21 00:45:52;;;;;;;5.07;4.57;;;5.20;61.40;;;;;;5328206;26;20289;-65
2024/04/21 00:48:21;;;;;;;4.87;4.37;;;5.20;61.10;;;;;;5322810;26;20691;-65
2024/04/21 00:50:46;;;;;;;5.20;4.70;;;5.20;61.30;;;;;;5290680;27;20257;-65
2024/04/21 00:53:15;;;;;;;5.00;4.60;;;5.20;61.60;;;;;;5331055;26;20358;-65
2024/04/21 00:55:40;;;;;;;5.40;5.00;;;5.20;61.30;;;;;;5305165;26;20243;-65
2024/04/21 00:58:08;;;;;;;5.10;4.60;;;5.30;60.90;;;;;;5334883;26;20849;-65
2024/04/21 01:00:34;;;;;;;4.90;4.50;;;5.20;60.90;;;;;;5329271;26;20426;-65
2024/04/21 01:03:02;;;;;;;4.80;4.50;;;5.30;60.50;;;;;;5330118;26;20359;-65
2024/04/21 01:05:28;;;;;;;5.00;4.60;;;5.30;60.60;;;;;;5335660;26;20360;-65
2024/04/21 01:07:56;;;;;;;5.20;4.80;;;5.30;60.80;;;;;;5325851;26;20588;-65
2024/04/21 01:10:21;;;;;;;5.03;4.53;;;5.30;61.30;;;;;;5313479;26;20839;-65
2024/04/21 01:12:50;;;;;;;6.17;4.87;;;5.40;61.00;;;;;;5311641;26;20258;-65
2024/04/21 01:15:15;;;;;;;6.63;4.90;;;5.30;61.10;;;;;;5331599;26;20374;-66
2024/04/21 01:17:44;;;;;;;4.97;4.57;;;5.40;60.70;;;;;;5335233;26;20229;-65
2024/04/21 01:20:09;;;;;;;5.37;4.93;;;5.40;60.90;;;;;;5332348;26;20368;-65
2024/04/21 01:22:37;;;;;;;4.50;4.20;;;5.40;61.00;;;;;;5327186;26;20253;-65
2024/04/21 01:25:03;;;;;;;5.20;4.80;;;5.40;61.50;;;;;;5320690;26;20310;-65
2024/04/21 01:27:31;;;;;;;4.87;4.20;;;5.40;61.70;;;;;;5327521;26;20338;-65
2024/04/21 01:29:57;;;;;;;4.90;4.50;;;5.30;61.30;;;;;;5316177;26;20335;-65
2024/04/21 01:32:25;;;;;;;4.73;4.33;;;5.40;61.60;;;;;;5324034;26;20696;-65
2024/04/21 01:34:50;;;;;;;5.57;5.17;;;5.30;61.80;;;;;;5322695;26;20327;-65
2024/04/21 01:37:19;;;;;;;5.13;4.73;;;5.20;62.20;;;;;;5328127;26;20256;-65
2024/04/21 01:39:44;;;;;;;5.93;5.43;;;5.20;62.80;;;;;;5333750;26;20261;-65
2024/04/21 01:42:12;;;;;;;5.47;4.73;;;5.30;63.40;;;;;;5330642;26;20236;-65
2024/04/21 01:44:38;;;;;;;4.60;4.30;;;5.30;62.70;;;;;;5278333;27;20753;-65
2024/04/21 01:47:06;;;;;;;4.90;4.50;;;5.30;62.50;;;;;;5326714;26;20241;-70
2024/04/21 01:49:32;;;;;;;4.67;4.33;;;5.30;63.20;;;;;;5304616;26;20373;-65
2024/04/21 01:52:00;;;;;;;4.93;4.53;;;5.30;63.10;;;;;;5316657;26;20254;-65
2024/04/21 01:54:26;;;;;;;4.97;4.57;;;5.30;63.80;;;;;;5337957;26;20316;-65
2024/04/21 01:56:54;;;;;;;4.80;4.40;;;5.30;63.90;;;;;;5338659;26;20241;-65
2024/04/21 01:59:19;;;;;;;5.60;5.10;;;5.40;63.90;;;;;;5332966;26;20289;-65
2024/04/21 02:01:47;;;;;;;5.57;5.03;;;5.40;63.90;;;;;;5324026;26;20365;-65
2024/04/21 02:04:13;;;;;;;5.10;4.70;;;5.30;63.80;;;;;;5334476;26;20242;-65
2024/04/21 02:06:41;;;;;;;5.67;5.20;;;5.30;63.90;;;;;;5323455;26;20853;-65
2024/04/21 02:09:07;;;;;;;5.27;4.87;;;5.30;64.20;;;;;;5313442;26;20277;-65
2024/04/21 02:11:35;;;;;;;6.37;5.73;;;5.30;63.90;;;;;;5307244;26;20735;-65
2024/04/21 02:14:01;;;;;;;6.10;5.60;;;5.30;63.90;;;;;;5336663;26;20376;-65
2024/04/21 02:16:29;;;;;;;5.30;4.80;;;5.40;64.80;;;;;;5331916;26;20242;-65
2024/04/21 02:18:54;;;;;;;5.70;5.20;;;5.40;64.60;;;;;;5322876;26;20358;-65
2024/04/21 02:21:23;;;;;;;5.67;5.27;;;5.30;63.90;;;;;;5333185;26;20736;-65
2024/04/21 02:23:48;;;;;;;6.37;5.70;;;5.30;64.10;;;;;;5316672;26;20798;-65
2024/04/21 02:26:17;;;;;;;5.63;5.13;;;5.30;63.80;;;;;;5305350;26;20340;-65
2024/04/21 02:28:42;;;;;;;5.67;5.20;;;5.40;64.30;;;;;;5338325;26;20356;-65
2024/04/21 02:31:10;;;;;;;6.10;5.60;;;5.40;64.00;;;;;;5334775;26;20254;-65
2024/04/21 02:33:36;;;;;;;5.40;5.00;;;5.40;63.90;;;;;;5300707;27;20314;-65
2024/04/21 02:36:04;;;;;;;5.53;5.13;;;5.40;63.90;;;;;;5319035;26;20247;-65
2024/04/21 02:38:30;;;;;;;5.70;5.20;;;5.40;63.90;;;;;;5324456;26;20288;-65
2024/04/21 02:40:59;;;;;;;5.60;5.10;;;5.40;63.90;;;;;;5325972;26;20249;-64
2024/04/21 02:43:24;;;;;;;5.63;5.23;;;5.40;63.90;;;;;;5322269;26;20375;-65
2024/04/21 02:45:52;;;;;;;5.57;5.17;;;5.30;63.90;;;;;;5331420;26;20238;-65
2024/04/21 02:48:18;;;;;;;5.13;4.73;;;5.20;63.70;;;;;;5337324;26;20317;-65
2024/04/21 02:50:46;;;;;;;5.60;5.10;;;5.30;64.30;;;;;;5327745;26;20233;-66
2024/04/21 02:53:12;;;;;;;5.03;4.63;;;5.30;64.80;;;;;;5316468;26;20254;-65
2024/04/21 02:55:40;;;;;;;5.37;4.97;;;5.40;64.50;;;;;;5338216;26;20237;-65
2024/04/21 02:58:06;;;;;;;5.63;5.20;;;5.30;63.60;;;;;;5333977;26;20698;-64
2024/04/21 03:00:34;;;;;;;5.90;5.40;;;5.30;63.90;;;;;;5324125;26;20256;-65
2024/04/21 03:02:59;;;;;;;6.03;5.53;;;5.40;63.90;;;;;;5334447;26;20289;-65
2024/04/21 03:05:28;;;;;;;5.33;4.83;;;5.40;63.90;;;;;;5323905;26;20237;-65
2024/04/21 03:07:53;;;;;;;5.20;4.80;;;5.20;63.70;;;;;;5337573;26;20375;-65
2024/04/21 03:10:21;;;;;;;5.37;4.97;;;5.30;63.90;;;;;;5315281;26;20732;-65
2024/04/21 03:12:47;;;;;;;5.20;4.80;;;5.30;62.80;;;;;;5336348;26;20261;-65
2024/04/21 03:15:15;;;;;;;6.07;5.57;;;5.30;63.00;;;;;;5332908;26;20354;-65
2024/04/21 03:17:41;;;;;;;5.80;5.40;;;5.40;62.80;;;;;;5324274;26;20305;-65
2024/04/21 03:20:09;;;;;;;6.30;5.70;;;5.40;62.50;;;;;;5323216;26;20352;-65
2024/04/21 03:22:34;;;;;;;5.17;4.77;;;5.40;62.80;;;;;;5337478;26;20348;-65
2024/04/21 03:25:03;;;;;;;5.93;5.43;;;5.30;62.10;;;;;;5317437;26;20261;-65
2024/04/21 03:27:28;;;;;;;5.40;4.93;;;5.30;62.20;;;;;;5326498;26;20557;-65
2024/04/21 03:29:57;;;;;;;5.70;5.27;;;5.30;62.60;;;;;;5337121;26;20279;-65
2024/04/21 03:32:22;;;;;;;5.37;4.97;;;5.30;62.50;;;;;;5317901;26;20250;-65
2024/04/21 03:34:50;;;;;;;5.17;4.77;;;5.30;62.60;;;;;;5325358;26;20589;-65
2024/04/21 03:37:19;;;;;;;5.67;5.27;;;5.30;62.00;;;;;;5301434;26;20343;-65
2024/04/21 03:39:47;;;;;;;5.57;5.17;;;5.30;62.40;;;;;;5333850;26;20806;-65
2024/04/21 03:42:15;;;;;;;5.67;5.17;;;5.20;62.10;;;;;;5334821;26;20767;-65
2024/04/21 03:44:43;;;;;;;5.37;4.97;;;5.30;62.00;;;;;;5326888;26;20343;-65
2024/04/21 03:47:09;;;;;;;5.80;5.27;;;5.30;62.00;;;;;;5334122;26;20304;-65
2024/04/21 03:49:37;;;;;;;6.17;5.60;;;5.30;62.40;;;;;;5336711;26;20346;-65
2024/04/21 03:52:03;;;;;;;5.93;5.53;;;5.20;62.10;;;;;;5330222;26;20691;-65
2024/04/21 03:54:31;;;;;;;5.50;5.10;;;5.30;62.60;;;;;;5323114;26;20251;-65
2024/04/21 03:56:56;;;;;;;5.90;5.40;;;5.30;62.10;;;;;;5331040;26;20338;-66
2024/04/21 03:59:25;;;;;;;5.50;5.10;;;5.30;62.00;;;;;;5336904;26;20246;-65
2024/04/21 04:01:50;;;;;;;5.23;4.83;;;5.20;62.20;;;;;;5292785;26;20244;-65
2024/04/21 04:04:19;;;;;;;4.97;4.57;;;5.20;61.60;;;;;;5320784;26;20806;-65
2024/04/21 04:06:44;;;;;;;5.50;5.10;;;5.20;61.40;;;;;;5330681;26;20357;-65
2024/04/21 04:09:12;;;;;;;4.90;4.50;;;5.20;61.10;;;;;;5333191;26;20257;-65
2024/04/21 04:11:38;;;;;;;5.00;4.60;;;5.20;61.60;;;;;;5318672;26;20264;-65
2024/04/21 04:14:07;;;;;;;4.80;4.47;;;5.30;61.70;;;;;;5297230;26;20847;-65
2024/04/21 04:16:33;;;;;;;5.00;4.60;;;5.30;60.80;;;;;;5336557;26;20347;-65
2024/04/21 04:19:01;;;;;;;5.17;4.77;;;5.30;60.70;;;;;;5331074;26;20249;-66
2024/04/21 04:21:26;;;;;;;4.87;4.53;;;5.30;60.60;;;;;;5279856;27;20278;-65
2024/04/21 04:23:55;;;;;;;5.20;4.80;;;5.30;59.90;;;;;;5328688;26;20237;-65
2024/04/21 04:26:20;;;;;;;5.63;5.10;;;5.20;60.30;;;;;;5320118;26;20431;-66
2024/04/21 04:28:49;;;;;;;5.23;4.83;;;5.20;60.90;;;;;;5321280;26;20265;-65
2024/04/21 04:31:14;;;;;;;5.07;4.67;;;5.20;61.60;;;;;;5333235;26;20242;-66
2024/04/21 04:33:42;;;;;;;5.57;5.10;;;5.20;61.00;;;;;;5332321;26;20245;-65
2024/04/21 04:36:08;;;;;;;5.83;5.43;;;5.20;60.80;;;;;;5324872;26;20288;-66
2024/04/21 04:38:36;;;;;;;5.47;4.97;;;5.20;60.50;;;;;;5336379;26;20315;-65
2024/04/21 04:41:02;;;;;;;5.07;4.67;;;5.10;60.60;;;;;;5333656;26;20288;-65
2024/04/21 04:43:30;;;;;;;5.07;4.67;;;5.20;60.90;;;;;;5323855;26;20257;-65
2024/04/21 04:45:55;;;;;;;5.13;4.73;;;5.30;61.20;;;;;;5328650;26;20746;-65
2024/04/21 04:48:24;;;;;;;5.37;4.97;;;5.40;61.00;;;;;;5326821;26;20237;-65
2024/04/21 04:50:49;;;;;;;5.20;4.70;;;5.40;61.10;;;;;;5335243;26;20317;-65
2024/04/21 04:53:17;;;;;;;5.23;4.83;;;5.40;60.00;;;;;;5321175;26;20405;-65
2024/04/21 04:55:43;;;;;;;5.00;4.60;;;5.40;60.70;;;;;;5320646;26;20360;-65
2024/04/21 04:58:12;;;;;;;6.17;5.73;;;5.50;59.80;;;;;;5332080;26;20737;-65
2024/04/21 05:00:37;;;;;;;5.00;4.60;;;5.50;59.40;;;;;;5317377;26;20243;-66
2024/04/21 05:03:05;;;;;;;4.90;4.50;;;5.30;60.10;;;;;;5320668;26;20253;-65
2024/04/21 05:05:31;;;;;;;5.60;5.13;;;5.40;59.60;;;;;;5328482;26;20736;-65
2024/04/21 05:07:59;;;;;;;5.30;4.80;;;5.40;60.20;;;;;;5329044;26;20277;-66
2024/04/21 05:10:26;;;;;;;5.40;5.00;;;5.40;60.00;;;;;;5321072;26;20289;-65
2024/04/21 05:12:54;;;;;;;5.13;4.73;;;5.40;60.90;;;;;;5328014;26;20250;-65
2024/04/21 05:15:20;;;;;;;5.30;4.90;;;5.50;60.30;;;;;;5334035;26;20248;-65
2024/04/21 05:17:48;;;;;;;5.20;4.80;;;5.40;60.50;;;;;;5332325;26;20346;-65
2024/04/21 05:20:13;;;;;;;4.97;4.50;;;5.50;60.80;;;;;;5313756;26;20295;-65
2024/04/21 05:22:42;;;;;;;5.40;5.00;;;5.40;60.50;;;;;;5332189;26;20237;-65
2024/04/21 05:25:07;;;;;;;5.27;4.80;;;5.40;60.20;;;;;;5316968;26;21066;-65
2024/04/21 05:27:35;;;;;;;4.90;4.40;;;5.40;60.80;;;;;;5312676;26;20327;-65
2024/04/21 05:30:01;;;;;;;5.63;5.17;;;5.60;60.50;;;;;;5333216;26;20280;-65
2024/04/21 05:32:29;;;;;;;5.30;4.90;;;5.60;60.80;;;;;;5329727;26;20699;-65
2024/04/21 05:34:55;;;;;;;5.30;4.80;;;5.60;60.10;;;;;;5333357;26;20246;-65
2024/04/21 05:37:23;;;;;;;5.10;4.70;;;5.60;60.60;;;;;;5335213;26;20470;-65
2024/04/21 05:39:48;;;;;;;5.40;4.93;;;5.70;61.00;;;;;;5282246;26;20237;-65
2024/04/21 05:42:17;;;;;;;4.70;4.40;;;5.70;60.80;;;;;;5304094;26;20644;-66
2024/04/21 05:44:42;;;;;;;5.13;4.83;;;5.70;60.70;;;;;;5319859;26;20702;-65
2024/04/21 05:47:11;;;;;;;5.97;5.47;;;5.70;60.90;;;;;;5293429;26;20346;-65
2024/04/21 05:49:36;;;;;;;5.30;4.90;;;5.80;60.70;;;;;;5334841;26;20338;-65
2024/04/21 05:52:04;;;;;;;5.60;4.40;;;5.80;60.90;;;;;;5334056;26;20253;-66
2024/04/21 05:54:30;;;;;;;5.40;4.90;;;5.70;61.70;;;;;;5298991;27;20238;-65
2024/04/21 05:56:58;;;;;;;4.97;4.57;;;5.80;62.20;;;;;;5319139;26;20246;-65
2024/04/21 05:59:24;;;;;;;5.60;5.20;;;5.80;61.10;;;;;;5326573;26;20302;-66
2024/04/21 06:01:52;;;;;;;5.50;5.10;;;5.80;61.10;;;;;;5303632;26;20359;-65
2024/04/21 06:04:18;;;;;;;5.20;4.80;;;5.80;61.40;;;;;;5290430;26;20371;-65
2024/04/21 06:06:47;;;;;;;4.90;4.60;;;5.80;61.80;;;;;;5320211;26;20255;-65
2024/04/21 06:09:13;;;;;;;4.93;4.53;;;5.80;61.50;;;;;;5308379;26;20238;-65
2024/04/21 06:11:41;;;;;;;4.80;4.50;;;5.80;62.10;;;;;;5320433;26;20280;-65
2024/04/21 06:14:06;;;;;;;5.27;4.77;;;5.80;61.80;;;;;;5330493;26;20320;-65
2024/04/21 06:16:35;;;;;;;4.93;4.53;;;5.80;61.60;;;;;;5332531;26;20701;-65
2024/04/21 06:19:00;;;;;;;4.80;4.37;;;5.90;62.10;;;;;;5315492;26;20250;-67
2024/04/21 06:21:29;;;;;;;4.33;3.93;;;5.90;61.20;;;;;;5317838;26;20246;-67
2024/04/21 06:23:55;;;;;;;5.10;4.70;;;5.90;61.50;;;;;;5332070;26;20237;-67
2024/04/21 06:26:23;;;;;;;5.60;4.20;;;5.80;60.90;;;;;;5309720;26;20250;-66
2024/04/21 06:28:49;;;;;;;5.77;5.30;;;5.90;62.10;;;;;;5311470;26;20433;-67
2024/04/21 06:31:17;;;;;;;5.33;4.93;;;6.00;62.50;;;;;;5328103;26;20267;-67
2024/04/21 06:33:43;;;;;;;5.23;4.73;;;6.10;61.60;;;;;;5316016;26;20788;-66
2024/04/21 06:36:11;;;;;;;4.57;4.17;;;6.10;61.10;;;;;;5324346;26;20352;-67
2024/04/21 06:38:36;;;;;;;5.17;4.77;;;6.10;60.80;;;;;;5327645;26;20359;-67
2024/04/21 06:41:05;;;;;;;5.37;4.80;;;6.20;61.30;;;;;;5324448;26;20246;-67
2024/04/21 06:43:30;;;;;;;4.63;4.33;;;6.20;60.70;;;;;;5301366;26;20370;-67
2024/04/21 06:45:58;;;;;;;5.03;4.63;;;6.20;61.10;;;;;;5304389;26;20252;-67
2024/04/21 06:48:24;;;;;;;4.33;4.03;;;6.30;61.10;;;;;;5315136;26;20359;-67
2024/04/21 06:50:52;;;;;;;4.40;4.00;;;6.30;60.90;;;;;;5307583;26;20772;-67
2024/04/21 06:53:18;;;;;;;4.30;4.00;;;6.20;60.20;;;;;;5335663;26;20356;-66
2024/04/21 06:55:46;;;;;;;3.90;3.60;;;6.30;60.40;;;;;;5322409;26;20649;-67
2024/04/21 06:58:12;;;;;;;4.33;3.80;;;6.40;59.70;;;;;;5296828;26;20345;-66
2024/04/21 07:00:40;;;;;;;3.77;3.50;;;6.30;59.70;;;;;;5285109;26;20256;-67
2024/04/21 07:03:05;;;;;;;3.67;3.37;;;6.40;59.90;;;;;;5302104;26;20350;-67
2024/04/21 07:05:34;;;;;;;4.00;3.70;;;6.40;59.90;;;;;;5303900;26;20274;-67
2024/04/21 07:07:59;;;;;;;4.10;3.80;;;6.50;59.60;;;;;;5298866;26;20312;-65
2024/04/21 07:10:28;;;;;;;3.70;3.50;;;6.40;58.50;;;;;;5297920;26;20256;-66
2024/04/21 07:12:53;;;;;;;4.00;3.70;;;6.50;58.60;;;;;;5304936;26;20277;-66
2024/04/21 07:15:22;;;;;;;4.20;3.50;;;6.50;59.10;;;;;;5296657;26;20243;-66
2024/04/21 07:17:47;;;;;;;3.80;3.57;;;6.60;59.00;;;;;;5328808;26;20311;-66
2024/04/21 07:20:15;;;;;;;3.40;3.13;;;6.40;58.60;;;;;;5323917;26;20244;-66
2024/04/21 07:22:41;;;;;;;3.60;3.30;;;6.40;60.20;;;;;;5295415;26;20357;-66
2024/04/21 07:25:11;;;;;;;3.20;3.00;;;6.50;60.00;;;;;;5304556;26;20803;-66
2024/04/21 07:27:36;;;;;;;2.63;2.47;;;6.50;59.90;;;;;;5315258;26;20293;-67
2024/04/21 07:30:05;;;;;;;3.43;3.00;;;6.70;59.00;;;;;;5321498;26;20257;-67
2024/04/21 07:32:30;;;;;;;3.77;3.37;;;6.80;57.80;;;;;;5339128;26;20337;-67
2024/04/21 07:34:58;;;;;;;3.30;3.00;;;6.90;58.60;;;;;;5328427;26;20238;-67
2024/04/21 07:37:24;;;;;;;2.80;2.60;;;6.90;58.60;;;;;;5310534;26;20303;-67
2024/04/21 07:39:52;;;;;;;3.07;2.87;;;6.90;57.40;;;;;;5301421;26;20253;-66
2024/04/21 07:42:18;;;;;;;2.90;2.60;;;6.90;57.50;;;;;;5313449;26;20322;-66
2024/04/21 07:44:47;;;;;;;3.33;2.50;;;6.80;58.00;;;;;;5314863;26;20242;-66
2024/04/21 07:47:12;;;;;;;3.50;3.20;;;6.70;58.40;;;;;;5329309;26;20249;-66
2024/04/21 07:49:40;;;;;;;2.60;2.50;;;6.40;59.00;;;;;;5323834;26;20318;-66
2024/04/21 07:52:06;;;;;;;2.80;2.60;;;6.40;59.50;;;;;;5300222;26;20270;-66
2024/04/21 07:54:34;;;;;;;2.40;2.20;;;6.40;60.20;;;;;;5320815;26;20237;-66
2024/04/21 07:57:00;;;;;;;2.60;2.40;;;6.50;60.40;;;;;;5332972;26;20310;-66
2024/04/21 07:59:28;;;;;;;2.53;2.30;;;6.30;60.50;;;;;;5297570;26;20267;-66
2024/04/21 08:01:54;;;;;;;2.00;1.90;;;6.30;61.30;;;;;;5284777;26;20302;-66
2024/04/21 08:04:22;;;;;;;1.53;1.50;;;6.50;60.30;;;;;;5309896;26;20258;-66
2024/04/21 08:06:48;;;;;;;1.90;1.80;;;6.70;59.60;;;;;;5315271;26;20315;-67
2024/04/21 08:09:16;;;;;;;2.10;1.90;;;7.00;60.10;;;;;;5298178;26;20260;-67
2024/04/21 08:11:41;;;;;;;2.20;2.10;;;7.30;58.30;;;;;;5260662;26;20356;-67
2024/04/21 08:14:10;;;;;;;2.30;2.20;;;7.50;57.90;;;;;;5309903;27;20350;-67
2024/04/21 08:16:35;;;;;;;2.30;2.10;;;7.90;57.10;;;;;;5290203;27;20292;-66
2024/04/21 08:19:04;;;;;;;2.20;2.00;;;8.30;57.20;;;;;;5288749;27;20254;-66
2024/04/21 08:21:29;;;;;;;2.07;1.97;;;8.60;56.00;;;;;;5300998;27;20593;-66
2024/04/21 08:23:58;;;;;;;2.27;2.17;;;8.60;55.00;;;;;;5308922;27;20287;-69
2024/04/21 08:26:23;;;;;;;2.43;2.23;;;8.70;55.70;;;;;;5299014;27;20294;-67
2024/04/21 08:28:52;;;;;;;2.40;2.30;;;8.60;53.40;;;;;;5299135;27;20335;-66
2024/04/21 08:31:17;;;;;;;2.47;2.30;;;8.20;54.60;;;;;;5304862;27;20245;-67
2024/04/21 08:33:46;;;;;;;2.60;2.40;;;8.50;53.80;;;;;;5301757;27;20723;-67
2024/04/21 08:36:12;;;;;;;2.20;2.10;;;8.60;53.30;;;;;;5311789;27;20594;-67
2024/04/21 08:38:40;;;;;;;2.70;2.50;;;8.50;53.40;;;;;;5274373;27;20294;-66
2024/04/21 08:41:06;;;;;;;2.23;2.10;;;8.30;52.00;;;;;;5307527;27;20792;-68
2024/04/21 08:43:34;;;;;;;2.37;2.27;;;8.70;53.30;;;;;;5288975;26;20324;-67
2024/04/21 08:45:59;;;;;;;2.13;2.03;;;9.00;51.10;;;;;;5299144;27;20352;-67
2024/04/21 08:48:29;;;;;;;2.20;2.00;;;9.30;50.80;;;;;;5312637;27;20247;-67
2024/04/21 08:50:54;;;;;;;2.20;2.00;;;9.20;50.30;;;;;;5272367;27;20252;-67
2024/04/21 08:53:23;;;;;;;2.37;2.17;;;9.20;50.30;;;;;;5312657;27;20711;-67
2024/04/21 08:55:48;;;;;;;2.40;2.20;;;9.50;50.70;;;;;;5312931;27;20296;-67
2024/04/21 08:58:17;;;;;;;3.00;2.73;;;9.80;48.70;;;;;;5313080;27;20245;-67
2024/04/21 09:00:42;;;;;;;2.00;1.90;;;9.60;47.90;;;;;;5313182;27;20243;-67
2024/04/21 09:03:10;;;;;;;2.57;2.37;;;9.00;48.60;;;;;;5302616;27;20243;-67
2024/04/21 09:05:36;;;;;;;3.07;2.00;;;9.20;49.30;;;;;;5305203;27;20310;-67
2024/04/21 09:08:04;;;;;;;2.00;1.90;;;9.80;49.50;;;;;;5307188;27;20847;-65
2024/04/21 09:10:30;;;;;;;2.07;1.87;;;10.30;44.80;;;;;;5313244;27;20348;-67
2024/04/21 09:12:58;;;;;;;2.10;2.00;;;9.30;48.60;;;;;;5313368;27;20703;-67
2024/04/21 09:15:24;;;;;;;2.37;1.73;;;8.50;51.00;;;;;;5298611;27;20239;-67
2024/04/21 09:17:52;;;;;;;1.90;1.60;;;8.20;52.90;;;;;;5313045;27;20269;-67
2024/04/21 09:20:17;;;;;;;1.80;1.70;;;8.20;52.90;;;;;;5309820;27;20254;-67
2024/04/21 09:22:46;;;;;;;1.63;1.53;;;7.90;52.70;;;;;;5307199;27;20292;-66
2024/04/21 09:25:11;;;;;;;1.90;1.80;;;7.70;52.50;;;;;;5302499;27;20298;-66
2024/04/21 09:27:40;;;;;;;1.90;1.80;;;7.60;53.90;;;;;;5312007;27;20666;-66
2024/04/21 09:30:05;;;;;;;1.93;1.83;;;7.40;54.90;;;;;;5312778;27;20342;-66
2024/04/21 09:32:33;;;;;;;2.37;1.83;;;7.10;55.40;;;;;;5312570;27;20254;-66
2024/04/21 09:34:59;;;;;;;1.83;1.70;;;7.00;56.90;;;;;;5311472;27;20308;-66
2024/04/21 09:37:29;;;;;;;2.23;2.13;;;6.70;57.80;;;;;;5299421;27;20249;-66
2024/04/21 09:39:55;;;;;;;2.07;1.97;;;6.70;58.80;;;;;;5287080;26;20245;-67
2024/04/21 09:42:25;;;;;;;1.83;1.73;;;6.80;60.40;;;;;;5264568;27;20300;-66
2024/04/21 09:44:51;;;;;;;2.00;1.90;;;6.80;59.10;;;;;;5289364;27;20244;-66
2024/04/21 09:47:19;;;;;;;2.00;1.90;;;6.80;58.40;;;;;;5289160;27;20351;-66
2024/04/21 09:49:45;;;;;;;2.23;2.13;;;6.80;57.80;;;;;;5282841;27;20385;-66
2024/04/21 09:52:14;;;;;;;2.87;1.97;;;6.90;59.20;;;;;;5285639;27;20673;-66
2024/04/21 09:54:39;;;;;;;2.10;2.00;;;7.00;59.00;;;;;;5288719;27;20672;-66
2024/04/21 09:57:08;;;;;;;2.10;2.00;;;7.00;58.50;;;;;;5295199;27;20280;-66
2024/04/21 09:59:33;;;;;;;2.03;1.93;;;7.10;57.60;;;;;;5291233;27;20366;-66
2024/04/21 10:02:02;;;;;;;2.30;2.10;;;7.00;56.40;;;;;;5278968;27;20254;-66
2024/04/21 10:04:27;;;;;;;2.20;2.10;;;7.00;56.40;;;;;;5280901;27;20252;-66
2024/04/21 10:06:55;;;;;;;1.97;1.87;;;7.00;57.10;;;;;;5290097;27;20719;-66
2024/04/21 10:09:21;;;;;;;2.50;2.00;;;7.10;56.50;;;;;;5300356;27;20663;-66
2024/04/21 10:11:49;;;;;;;2.10;2.00;;;7.10;55.90;;;;;;5282100;27;20257;-66
2024/04/21 10:14:15;;;;;;;2.13;1.90;;;7.30;55.70;;;;;;5269412;27;20268;-66
2024/04/21 10:16:43;;;;;;;2.50;2.30;;;7.50;56.00;;;;;;5295746;27;20276;-66
2024/04/21 10:19:09;;;;;;;2.80;2.60;;;7.60;55.50;;;;;;5302352;27;20308;-67
2024/04/21 10:21:37;;;;;;;2.63;2.43;;;7.70;55.60;;;;;;5292045;27;20416;-66
2024/04/21 10:24:03;;;;;;;2.87;2.67;;;7.90;56.80;;;;;;5306723;27;20787;-66
2024/04/21 10:26:32;;;;;;;3.43;3.13;;;7.90;55.60;;;;;;5268928;27;20258;-67
2024/04/21 10:28:57;;;;;;;3.23;3.03;;;8.00;57.20;;;;;;5303506;27;20242;-66
2024/04/21 10:31:26;;;;;;;2.70;2.50;;;7.90;56.50;;;;;;5282560;27;20841;-66
2024/04/21 10:33:51;;;;;;;1.90;1.80;;;7.80;55.40;;;;;;5286744;27;20314;-66
2024/04/21 10:36:20;;;;;;;2.03;1.83;;;7.50;56.50;;;;;;5295076;27;20258;-66
2024/04/21 10:38:48;;;;;;;1.90;1.80;;;7.40;56.50;;;;;;5286370;27;20277;-66
2024/04/21 10:41:14;;;;;;;1.80;1.70;;;7.30;57.60;;;;;;5286427;27;20416;-66
2024/04/21 10:43:42;;;;;;;1.93;1.83;;;7.40;57.60;;;;;;5285256;27;20258;-66
2024/04/21 10:46:07;;;;;;;2.00;1.90;;;7.30;56.80;;;;;;5285961;27;20254;-66
2024/04/21 10:48:36;;;;;;;1.73;1.70;;;7.40;57.50;;;;;;5291887;27;20726;-66
2024/04/21 10:51:02;;;;;;;1.90;1.80;;;7.60;58.10;;;;;;5279809;27;20305;-66
2024/04/21 10:53:30;;;;;;;2.53;1.83;;;7.60;57.60;;;;;;5281448;27;20333;-67
2024/04/21 10:55:55;;;;;;;1.70;1.60;;;7.50;58.50;;;;;;5300360;27;20249;-66
2024/04/21 10:58:24;;;;;;;1.80;1.70;;;7.50;56.80;;;;;;5294755;27;20336;-66
2024/04/21 11:00:50;;;;;;;1.77;1.70;;;7.40;57.20;;;;;;5304196;27;20253;-72
2024/04/21 11:03:18;;;;;;;1.70;1.60;;;7.50;59.00;;;;;;5303029;27;20295;-66
2024/04/21 11:05:43;;;;;;;1.60;1.50;;;7.60;58.20;;;;;;5304619;27;20317;-65
2024/04/21 11:08:12;;;;;;;1.73;1.63;;;7.50;58.00;;;;;;5299156;27;20248;-65
2024/04/21 11:10:37;;;;;;;2.10;1.90;;;7.50;59.40;;;;;;5298457;27;20375;-65
2024/04/21 11:13:06;;;;;;;1.90;1.80;;;7.50;58.70;;;;;;5312987;27;20253;-65
2024/04/21 11:15:31;;;;;;;1.90;1.80;;;7.40;58.50;;;;;;5312622;27;20287;-65
2024/04/21 11:18:00;;;;;;;1.93;1.70;;;7.30;58.30;;;;;;5314143;27;20246;-65
2024/04/21 11:20:25;;;;;;;1.80;1.70;;;7.20;57.70;;;;;;5296527;27;20241;-65
2024/04/21 11:22:53;;;;;;;1.90;1.80;;;7.30;58.30;;;;;;5310010;27;20641;-66
2024/04/21 11:25:19;;;;;;;2.10;2.00;;;7.40;58.60;;;;;;5302622;27;20284;-65
2024/04/21 11:27:47;;;;;;;1.73;1.63;;;7.20;56.80;;;;;;5301047;27;20701;-65
2024/04/21 11:30:14;;;;;;;2.60;1.83;;;7.20;58.80;;;;;;5308300;27;20284;-64
2024/04/21 11:32:42;;;;;;;2.47;2.27;;;7.20;59.80;;;;;;5301999;27;20241;-64
2024/04/21 11:35:08;;;;;;;2.10;2.00;;;7.20;58.90;;;;;;5317354;27;20291;-65
2024/04/21 11:37:36;;;;;;;1.80;1.70;;;7.10;58.60;;;;;;5297084;27;20252;-67
2024/04/21 11:40:01;;;;;;;2.20;1.70;;;7.00;59.20;;;;;;5304199;27;20384;-66
2024/04/21 11:42:30;;;;;;;2.03;1.93;;;7.00;58.80;;;;;;5297968;27;20262;-66
2024/04/21 11:44:55;;;;;;;1.80;1.70;;;6.90;56.60;;;;;;5272767;27;20303;-67
2024/04/21 11:47:23;;;;;;;1.90;1.80;;;6.80;59.10;;;;;;5301501;27;20608;-66
2024/04/21 11:49:49;;;;;;;1.90;1.80;;;6.80;57.20;;;;;;5302695;27;20352;-66
2024/04/21 11:52:17;;;;;;;2.00;1.90;;;6.90;57.10;;;;;;5294332;27;20274;-67
2024/04/21 11:54:43;;;;;;;2.80;1.93;;;6.90;56.60;;;;;;5309556;26;20275;-66
2024/04/21 11:57:11;;;;;;;1.97;1.87;;;7.00;58.20;;;;;;5306169;27;20248;-66
2024/04/21 11:59:36;;;;;;;1.90;1.80;;;7.00;58.10;;;;;;5291760;26;20268;-67
2024/04/21 12:02:05;;;;;;;2.00;1.90;;;6.90;56.30;;;;;;5292088;26;20417;-67
2024/04/21 12:04:30;;;;;;;2.30;2.20;;;6.90;56.60;;;;;;5304409;26;20367;-67
2024/04/21 12:06:58;;;;;;;2.67;2.47;;;6.80;56.80;;;;;;5309123;27;20669;-67
2024/04/21 12:09:24;;;;;;;2.90;2.70;;;6.40;58.70;;;;;;5304014;27;20334;-67
2024/04/21 12:11:52;;;;;;;2.70;2.50;;;6.40;59.20;;;;;;5312176;27;20251;-67
2024/04/21 12:14:19;;;;;;;2.77;2.50;;;6.20;59.10;;;;;;5297623;27;20670;-67
2024/04/21 12:16:48;;;;;;;2.47;2.37;;;5.80;59.20;;;;;;5296380;27;20248;-67
2024/04/21 12:19:13;;;;;;;2.60;2.50;;;5.90;61.30;;;;;;5284291;26;20243;-67
2024/04/21 12:21:42;;;;;;;2.10;2.00;;;6.00;59.90;;;;;;5276411;27;20299;-67
2024/04/21 12:24:08;;;;;;;2.40;2.30;;;5.90;59.70;;;;;;5303709;27;20777;-67
2024/04/21 12:26:36;;;;;;;2.60;2.30;;;5.70;59.80;;;;;;5305687;27;20357;-67
2024/04/21 12:29:02;;;;;;;2.20;2.10;;;5.70;61.00;;;;;;5292609;27;20247;-69
2024/04/21 12:31:30;;;;;;;2.40;2.30;;;5.70;60.70;;;;;;5276514;27;20254;-67
2024/04/21 12:33:55;;;;;;;2.10;2.00;;;5.70;60.40;;;;;;5300162;27;20315;-69
2024/04/21 12:36:24;;;;;;;2.10;2.00;;;5.80;61.30;;;;;;5291889;26;20235;-67
2024/04/21 12:38:49;;;;;;;2.03;1.93;;;5.80;60.20;;;;;;5297435;27;20591;-67
2024/04/21 12:41:17;;;;;;;2.00;1.90;;;5.90;61.10;;;;;;5294219;27;20286;-67
2024/04/21 12:43:43;;;;;;;1.60;1.60;;;6.00;59.70;;;;;;5310552;27;20249;-67
2024/04/21 12:46:11;;;;;;;2.00;1.90;;;5.90;61.50;;;;;;5305035;27;20296;-67
2024/04/21 12:48:37;;;;;;;2.10;2.00;;;5.90;61.50;;;;;;5298755;27;20281;-68
2024/04/21 12:51:06;;;;;;;1.93;1.83;;;6.00;61.20;;;;;;5303792;27;20267;-67
2024/04/21 12:53:31;;;;;;;3.20;2.90;;;5.90;61.30;;;;;;5293492;27;20251;-67
2024/04/21 12:56:00;;;;;;;2.00;1.90;;;5.90;61.20;;;;;;5297384;26;20642;-67